Observation data for Graham on 01/11/2018      Previous  Date  Next       Current Mesonet Observations  Soil Data  Daily Summary Page  Observations in Plain Language
KGHS 110600Z 22015G23KT 10/01 A2964 RMK A01 T01000012  RH  055%=      5-min Rain = 0
KGHS 110605Z 23013G22KT 10/01 A2964 RMK A01 T00990012  RH  055%=      5-min Rain = 0
KGHS 110610Z 22015G23KT 10/01 A2964 RMK A01 T00990011  RH  055%=      5-min Rain = 0
KGHS 110615Z 23014G25KT 10/01 A2964 RMK A01 T00980011  RH  055%=      5-min Rain = 0
KGHS 110620Z 23014G25KT 10/01 A2964 RMK A01 T00970011  RH  055%=      5-min Rain = 0
KGHS 110625Z 23016G27KT 10/01 A2964 RMK A01 T00970010  RH  055%=      5-min Rain = 0
KGHS 110630Z 23015G27KT 10/01 A2964 RMK A01 T00970010  RH  055%=      5-min Rain = 0
KGHS 110635Z 23016G29KT 10/01 A2964 RMK A01 T00970010  RH  055%=      5-min Rain = 0
KGHS 110640Z 23014G23KT 10/01 A2964 RMK A01 T00970009  RH  055%=      5-min Rain = 0
KGHS 110645Z 23015G25KT 10/01 A2964 RMK A01 T00970008  RH  055%=      5-min Rain = 0
KGHS 110650Z 22014G23KT 10/01 A2964 RMK A01 T00970008  RH  055%=      5-min Rain = 0
KGHS 110655Z 22015G25KT 10/01 A2963 RMK A01 T00950008  RH  055%=      5-min Rain = 0
KGHS 110700Z 23014G22KT 10/01 A2963 RMK A01 T00950008  RH  055%=      5-min Rain = 0
KGHS 110705Z 23015G26KT 09/01 A2963 RMK A01 T00940008  RH  056%=      5-min Rain = 0
KGHS 110710Z 23015G24KT 09/01 A2963 RMK A01 T00930007  RH  056%=      5-min Rain = 0
KGHS 110715Z 24016G24KT 09/01 A2963 RMK A01 T00940007  RH  055%=      5-min Rain = 0
KGHS 110720Z 24016G22KT 09/01 A2963 RMK A01 T00940007  RH  055%=      5-min Rain = 0
KGHS 110725Z 23015G24KT 09/01 A2963 RMK A01 T00930007  RH  055%=      5-min Rain = 0
KGHS 110730Z 23016G23KT 09/01 A2963 RMK A01 T00930007  RH  055%=      5-min Rain = 0
KGHS 110735Z 23016G24KT 09/01 A2963 RMK A01 T00930006  RH  055%=      5-min Rain = 0
KGHS 110740Z 24014G23KT 09/01 A2963 RMK A01 T00930006  RH  055%=      5-min Rain = 0
KGHS 110745Z 24017G26KT 09/01 A2963 RMK A01 T00930006  RH  055%=      5-min Rain = 0
KGHS 110750Z 24017G26KT 09/01 A2963 RMK A01 T00930006  RH  055%=      5-min Rain = 0
KGHS 110755Z 24017G25KT 09/01 A2963 RMK A01 T00930006  RH  055%=      5-min Rain = 0
KGHS 110800Z 25018G29KT 09/01 A2964 RMK A01 T00940006  RH  055%=      5-min Rain = 0
KGHS 110805Z 24018G28KT 09/01 A2964 RMK A01 T00940005  RH  054%=      5-min Rain = 0
KGHS 110810Z 25019G28KT 10/01 A2964 RMK A01 T00950005  RH  054%=      5-min Rain = 0
KGHS 110815Z 26016G22KT 10/00 A2964 RMK A01 T00950004  RH  054%=      5-min Rain = 0
KGHS 110820Z 25013G20KT 10/00 A2964 RMK A01 T00960004  RH  053%=      5-min Rain = 0
KGHS 110825Z 25015G23KT 09/00 A2964 RMK A01 T00940004  RH  054%=      5-min Rain = 0
KGHS 110830Z 25016G22KT 09/00 A2964 RMK A01 T00930004  RH  054%=      5-min Rain = 0
KGHS 110835Z 25016G23KT 09/00 A2964 RMK A01 T00920004  RH  054%=      5-min Rain = 0
KGHS 110840Z 25015G23KT 09/00 A2964 RMK A01 T00920003  RH  054%=      5-min Rain = 0
KGHS 110845Z 26015G21KT 09/00 A2964 RMK A01 T00910003  RH  055%=      5-min Rain = 0
KGHS 110850Z 26018G27KT 09/00 A2964 RMK A01 T00920003  RH  054%=      5-min Rain = 0
KGHS 110855Z 26016G22KT 09/00 A2965 RMK A01 T00920003  RH  054%=      5-min Rain = 0
KGHS 110900Z 25016G25KT 09/00 A2965 RMK A01 T00920003  RH  054%=      5-min Rain = 0
KGHS 110905Z 25015G21KT 09/00 A2965 RMK A01 T00910002  RH  054%=      5-min Rain = 0
KGHS 110910Z 25014G20KT 09/00 A2965 RMK A01 T00910002  RH  055%=      5-min Rain = 0
KGHS 110915Z 25016G22KT 09/00 A2965 RMK A01 T00900002  RH  055%=      5-min Rain = 0
KGHS 110920Z 25017G23KT 09/00 A2965 RMK A01 T00930002  RH  054%=      5-min Rain = 0
KGHS 110925Z 26017G23KT 09/00 A2965 RMK A01 T00940002  RH  053%=      5-min Rain = 0
KGHS 110930Z 25017G23KT 09/00 A2966 RMK A01 T00930002  RH  053%=      5-min Rain = 0
KGHS 110935Z 26015G20KT 09/00 A2966 RMK A01 T00930002  RH  053%=      5-min Rain = 0
KGHS 110940Z 26018G26KT 09/00 A2966 RMK A01 T00940002  RH  053%=      5-min Rain = 0
KGHS 110945Z 26018G24KT 10/00 A2966 RMK A01 T00960002  RH  052%=      5-min Rain = 0
KGHS 110950Z 26019G25KT 10/00 A2966 RMK A01 T00970002  RH  052%=      5-min Rain = 0
KGHS 110955Z 27017G23KT 10/00 A2967 RMK A01 T00980002  RH  052%=      5-min Rain = 0
KGHS 111000Z 26016G23KT 10/00 A2967 RMK A01 T00970002  RH  052%=      5-min Rain = 0
KGHS 111005Z 26015G23KT 10/00 A2968 RMK A01 T00960003  RH  053%=      5-min Rain = 0
KGHS 111010Z 27014KT 10/00 A2968 RMK A01 T00950003  RH  053%=      5-min Rain = 0
KGHS 111015Z 27015G21KT 09/00 A2968 RMK A01 T00930003  RH  054%=      5-min Rain = 0
KGHS 111020Z 27017G24KT 09/00 A2968 RMK A01 T00930003  RH  054%=      5-min Rain = 0
KGHS 111025Z 27018G26KT 09/00 A2968 RMK A01 T00930003  RH  054%=      5-min Rain = 0
KGHS 111030Z 27018G23KT 09/00 A2968 RMK A01 T00940003  RH  053%=      5-min Rain = 0
KGHS 111035Z 27016G22KT 09/00 A2969 RMK A01 T00940003  RH  054%=      5-min Rain = 0
KGHS 111040Z 27015G20KT 09/00 A2969 RMK A01 T00940004  RH  054%=      5-min Rain = 0
KGHS 111045Z 28014G19KT 09/00 A2969 RMK A01 T00930004  RH  054%=      5-min Rain = 0
KGHS 111050Z 28016G23KT 09/00 A2969 RMK A01 T00940004  RH  054%=      5-min Rain = 0
KGHS 111055Z 28016G21KT 10/01 A2969 RMK A01 T00950005  RH  054%=      5-min Rain = 0
KGHS 111100Z 29016G22KT 10/01 A2969 RMK A01 T00960005  RH  054%=      5-min Rain = 0
KGHS 111105Z 30020G28KT 10/01 A297 RMK A01 T00970007  RH  054%=      5-min Rain = 0
KGHS 111110Z 31021G31KT 10/01 A297 RMK A01 T00990012  RH  055%=      5-min Rain = 0
KGHS 111115Z 32022G30KT 10/02 A297 RMK A01 T00990019  RH  058%=      5-min Rain = 0
KGHS 111120Z 32025G31KT 10/02 A2971 RMK A01 T00980023  RH  060%=      5-min Rain = 0
KGHS 111125Z 33024G32KT 10/02 A2971 RMK A01 T00970023  RH  061%=      5-min Rain = 0
KGHS 111130Z 32020G27KT 10/02 A2971 RMK A01 T00960023  RH  061%=      5-min Rain = 0
KGHS 111135Z 33021G29KT 10/02 A2972 RMK A01 T00950022  RH  061%=      5-min Rain = 0
KGHS 111140Z 33024G35KT 09/02 A2972 RMK A01 T00940019  RH  060%=      5-min Rain = 0
KGHS 111145Z 34027G34KT 09/02 A2972 RMK A01 T00930015  RH  059%=      5-min Rain = 0
KGHS 111150Z 34028G36KT 09/01 A2972 RMK A01 T00910014  RH  059%=      5-min Rain = 0
KGHS 111155Z 34027G37KT 09/01 A2973 RMK A01 T00910013  RH  059%=      5-min Rain = 0
KGHS 111200Z 34026G34KT 09/01 A2973 RMK A01 T00900013  RH  059%=      5-min Rain = 0
KGHS 111205Z 34026G35KT 09/01 A2974 RMK A01 T00900013  RH  059%=      5-min Rain = 0
KGHS 111210Z 33023G37KT 09/01 A2975 RMK A01 T00890014  RH  060%=      5-min Rain = 0
KGHS 111215Z 33028G39KT 09/01 A2976 RMK A01 T00850012  RH  061%=      5-min Rain = 0
KGHS 111220Z 34030G42KT 08/01 A2976 RMK A01 T00810007  RH  060%=      5-min Rain = 0
KGHS 111225Z 34029G38KT 08/01 A2977 RMK A01 T00780006  RH  061%=      5-min Rain = 0
KGHS 111230Z 35028G38KT 08/01 A2977 RMK A01 T00750006  RH  062%=      5-min Rain = 0
KGHS 111235Z 34033G41KT 07/M00 A2978 RMK A01 T00681001  RH  062%=      5-min Rain = 0
KGHS 111240Z 35032G42KT 06/M01 A2978 RMK A01 T00591007  RH  063%=      5-min Rain = 0
KGHS 111245Z 34034G44KT 06/M01 A2979 RMK A01 T00551008  RH  064%=      5-min Rain = 0
KGHS 111250Z 35030G42KT 05/M01 A298 RMK A01 T00521010  RH  065%=      5-min Rain = 0
KGHS 111255Z 35029G37KT 05/M01 A2981 RMK A01 T00501011  RH  066%=      5-min Rain = 0
KGHS 111300Z 35027G40KT 05/M01 A2981 RMK A01 T00481011  RH  066%=      5-min Rain = 0
KGHS 111305Z 35024G34KT 05/M01 A2982 RMK A01 T00481011  RH  066%=      5-min Rain = 0
KGHS 111310Z 34023G29KT 05/M01 A2983 RMK A01 T00471011  RH  067%=      5-min Rain = 0
KGHS 111315Z 34022G27KT 05/M01 A2984 RMK A01 T00471011  RH  066%=      5-min Rain = 0
KGHS 111320Z 35023G30KT 05/M01 A2984 RMK A01 T00461013  RH  066%=      5-min Rain = 0
KGHS 111325Z 34025G31KT 05/M01 A2984 RMK A01 T00451013  RH  067%=      5-min Rain = 0
KGHS 111330Z 34024G32KT 05/M01 A2985 RMK A01 T00451013  RH  066%=      5-min Rain = 0
KGHS 111335Z 34020G28KT 05/M01 A2986 RMK A01 T00451014  RH  066%=      5-min Rain = 0
KGHS 111340Z 34023G30KT 04/M02 A2986 RMK A01 T00441015  RH  066%=      5-min Rain = 0
KGHS 111345Z 33023G31KT 04/M02 A2987 RMK A01 T00431018  RH  065%=      5-min Rain = 0
KGHS 111350Z 34027G39KT 04/M03 A2986 RMK A01 T00411025  RH  063%=      5-min Rain = 0
KGHS 111355Z 34030G39KT 04/M03 A2987 RMK A01 T00371032  RH  061%=      5-min Rain = 0
KGHS 111400Z 34027G34KT 04/M03 A2988 RMK A01 T00361033  RH  061%=      5-min Rain = 0
KGHS 111405Z 34025G33KT 03/M03 A2988 RMK A01 T00341034  RH  062%=      5-min Rain = 0
KGHS 111410Z 34024G31KT 03/M04 A2989 RMK A01 T00331035  RH  062%=      5-min Rain = 0
KGHS 111415Z 34026G41KT 03/M04 A299 RMK A01 T00311036  RH  062%=      5-min Rain = 0
KGHS 111420Z 35031G45KT 03/M04 A299 RMK A01 T00271043  RH  061%=      5-min Rain = 0
KGHS 111425Z 35030G38KT 02/M04 A299 RMK A01 T00241044  RH  061%=      5-min Rain = 0
KGHS 111430Z 35029G36KT 02/M04 A2991 RMK A01 T00231043  RH  063%=      5-min Rain = 0
KGHS 111435Z 35026G33KT 02/M04 A2992 RMK A01 T00231041  RH  064%=      5-min Rain = 0
KGHS 111440Z 35024G30KT 02/M04 A2993 RMK A01 T00221040  RH  064%=      5-min Rain = 0
KGHS 111445Z 34022G29KT 02/M04 A2993 RMK A01 T00231039  RH  064%=      5-min Rain = 0
KGHS 111450Z 34019G25KT 02/M04 A2994 RMK A01 T00231039  RH  064%=      5-min Rain = 0
KGHS 111455Z 34017G23KT 02/M04 A2994 RMK A01 T00241038  RH  064%=      5-min Rain = 0
KGHS 111500Z 34022G32KT 02/M04 A2995 RMK A01 T00241040  RH  063%=      5-min Rain = 0
KGHS 111505Z 34027G34KT 02/M05 A2995 RMK A01 T00231046  RH  061%=      5-min Rain = 0
KGHS 111510Z 34025G33KT 02/M05 A2996 RMK A01 T00221049  RH  060%=      5-min Rain = 0
KGHS 111515Z 34024G33KT 02/M05 A2996 RMK A01 T00211053  RH  059%=      5-min Rain = 0
KGHS 111520Z 34024G32KT 02/M06 A2996 RMK A01 T00201056  RH  058%=      5-min Rain = 0
KGHS 111525Z 34027G34KT 02/M06 A2997 RMK A01 T00191056  RH  058%=      5-min Rain = 0
KGHS 111530Z 35026G35KT 02/M06 A2997 RMK A01 T00211056  RH  058%=      5-min Rain = 0
KGHS 111535Z 34024G32KT 02/M06 A2998 RMK A01 T00211058  RH  057%=      5-min Rain = 0
KGHS 111540Z 34024G31KT 02/M06 A2999 RMK A01 T00221061  RH  055%=      5-min Rain = 0
KGHS 111545Z 35024G33KT 02/M06 A2999 RMK A01 T00231064  RH  053%=      5-min Rain = 0
KGHS 111550Z 34021G29KT 03/M06 A30 RMK A01 T00251064  RH  052%=      5-min Rain = 0
KGHS 111555Z 34018G27KT 03/M06 A3001 RMK A01 T00271063  RH  052%=      5-min Rain = 0
KGHS 111600Z 34024G30KT 03/M06 A3001 RMK A01 T00291064  RH  051%=      5-min Rain = 0
KGHS 111605Z 33026G34KT 03/M07 A3002 RMK A01 T00271067  RH  050%=      5-min Rain = 0
KGHS 111610Z 34023G31KT 03/M07 A3003 RMK A01 T00251070  RH  050%=      5-min Rain = 0
KGHS 111615Z 34023G29KT 02/M07 A3004 RMK A01 T00241071  RH  050%=      5-min Rain = 0
KGHS 111620Z 34024G33KT 02/M07 A3005 RMK A01 T00231071  RH  050%=      5-min Rain = 0
KGHS 111625Z 34021G29KT 02/M07 A3006 RMK A01 T00241071  RH  050%=      5-min Rain = 0
KGHS 111630Z 34026G34KT 03/M07 A3005 RMK A01 T00251074  RH  048%=      5-min Rain = 0
KGHS 111635Z 35029G36KT 03/M08 A3005 RMK A01 T00261077  RH  047%=      5-min Rain = 0
KGHS 111640Z 35028G34KT 03/M08 A3005 RMK A01 T00261078  RH  047%=      5-min Rain = 0
KGHS 111645Z 35025G37KT 03/M08 A3006 RMK A01 T00271077  RH  047%=      5-min Rain = 0
KGHS 111650Z 35028G36KT 03/M08 A3006 RMK A01 T00291078  RH  046%=      5-min Rain = 0
KGHS 111655Z 35022G29KT 03/M08 A3007 RMK A01 T00301077  RH  046%=      5-min Rain = 0
KGHS 111700Z 35023G30KT 03/M08 A3007 RMK A01 T00331075  RH  045%=      5-min Rain = 0
KGHS 111705Z 34025G33KT 04/M08 A3007 RMK A01 T00371075  RH  044%=      5-min Rain = 0
KGHS 111710Z 35025G33KT 04/M08 A3007 RMK A01 T00411075  RH  043%=      5-min Rain = 0
KGHS 111715Z 34027G33KT 04/M08 A3007 RMK A01 T00431077  RH  042%=      5-min Rain = 0
KGHS 111720Z 34027G34KT 04/M08 A3008 RMK A01 T00441078  RH  041%=      5-min Rain = 0
KGHS 111725Z 34028G35KT 05/M08 A3008 RMK A01 T00461079  RH  040%=      5-min Rain = 0
KGHS 111730Z 35027G32KT 05/M08 A3009 RMK A01 T00491079  RH  040%=      5-min Rain = 0
KGHS 111735Z 35026G32KT 05/M08 A3009 RMK A01 T00521080  RH  038%=      5-min Rain = 0
KGHS 111740Z 35026G34KT 05/M08 A3009 RMK A01 T00531081  RH  038%=      5-min Rain = 0
KGHS 111745Z 35023G32KT 05/M08 A3009 RMK A01 T00541080  RH  038%=      5-min Rain = 0
KGHS 111750Z 34021G26KT 06/M08 A301 RMK A01 T00581078  RH  037%=      5-min Rain = 0
KGHS 111755Z 35024G32KT 06/M08 A301 RMK A01 T00601081  RH  036%=      5-min Rain = 0
KGHS 111800Z 35024G34KT 06/M09 A301 RMK A01 T00591085  RH  035%=      5-min Rain = 0
KGHS 111805Z 35023G31KT 06/M08 A301 RMK A01 T00611084  RH  035%=      5-min Rain = 0
KGHS 111810Z 34022G32KT 06/M09 A3011 RMK A01 T00631085  RH  034%=      5-min Rain = 0
KGHS 111815Z 34027G36KT 06/M09 A3011 RMK A01 T00631089  RH  033%=      5-min Rain = 0
KGHS 111820Z 35020G32KT 07/M09 A3011 RMK A01 T00691087  RH  032%=      5-min Rain = 0
KGHS 111825Z 35023G32KT 07/M09 A301 RMK A01 T00721088  RH  031%=      5-min Rain = 0
KGHS 111830Z 35026G35KT 07/M09 A301 RMK A01 T00691093  RH  031%=      5-min Rain = 0
KGHS 111835Z 35023G32KT 07/M09 A3011 RMK A01 T00691090  RH  031%=      5-min Rain = 0
KGHS 111840Z 35028G37KT 07/M09 A3011 RMK A01 T00711094  RH  030%=      5-min Rain = 0
KGHS 111845Z 35023G31KT 07/M09 A3011 RMK A01 T00711093  RH  031%=      5-min Rain = 0
KGHS 111850Z 34023G32KT 07/M09 A3011 RMK A01 T00741092  RH  030%=      5-min Rain = 0
KGHS 111855Z 34027G36KT 07/M10 A3011 RMK A01 T00721095  RH  030%=      5-min Rain = 0
KGHS 111900Z 34026G38KT 07/M10 A3011 RMK A01 T00711099  RH  029%=      5-min Rain = 0
KGHS 111905Z 35029G39KT 07/M10 A3011 RMK A01 T00721103  RH  028%=      5-min Rain = 0
KGHS 111910Z 36024G30KT 07/M10 A3011 RMK A01 T00741101  RH  028%=      5-min Rain = 0
KGHS 111915Z 35021G29KT 08/M10 A3012 RMK A01 T00751097  RH  029%=      5-min Rain = 0
KGHS 111920Z 34025G31KT 08/M10 A3012 RMK A01 T00751098  RH  028%=      5-min Rain = 0
KGHS 111925Z 35026G35KT 07/M11 A3012 RMK A01 T00741105  RH  027%=      5-min Rain = 0
KGHS 111930Z 35021G34KT 08/M10 A3013 RMK A01 T00771103  RH  027%=      5-min Rain = 0
KGHS 111935Z 35023G36KT 08/M10 A3013 RMK A01 T00801103  RH  026%=      5-min Rain = 0
KGHS 111940Z 35024G34KT 08/M11 A3012 RMK A01 T00771106  RH  026%=      5-min Rain = 0
KGHS 111945Z 36028G36KT 08/M11 A3012 RMK A01 T00761109  RH  026%=      5-min Rain = 0
KGHS 111950Z 00027G36KT 08/M11 A3012 RMK A01 T00761111  RH  025%=      5-min Rain = 0
KGHS 111955Z 36025G35KT 08/M11 A3012 RMK A01 T00781108  RH  026%=      5-min Rain = 0
KGHS 112000Z 35021G29KT 08/M11 A3013 RMK A01 T00811107  RH  026%=      5-min Rain = 0
KGHS 112005Z 36024G32KT 08/M11 A3013 RMK A01 T00821109  RH  025%=      5-min Rain = 0
KGHS 112010Z 35023G31KT 08/M11 A3012 RMK A01 T00821109  RH  025%=      5-min Rain = 0
KGHS 112015Z 35024G31KT 08/M11 A3012 RMK A01 T00841108  RH  025%=      5-min Rain = 0
KGHS 112020Z 36021G31KT 09/M11 A3012 RMK A01 T00871108  RH  024%=      5-min Rain = 0
KGHS 112025Z 36024G31KT 09/M11 A3012 RMK A01 T00881108  RH  024%=      5-min Rain = 0
KGHS 112030Z 36023G31KT 09/M11 A3012 RMK A01 T00881108  RH  024%=      5-min Rain = 0
KGHS 112035Z 36026G37KT 09/M11 A3012 RMK A01 T00881113  RH  023%=      5-min Rain = 0
KGHS 112040Z 01026G34KT 09/M11 A3012 RMK A01 T00861112  RH  024%=      5-min Rain = 0
KGHS 112045Z 36025G33KT 09/M11 A3013 RMK A01 T00871113  RH  023%=      5-min Rain = 0
KGHS 112050Z 00021G28KT 09/M11 A3013 RMK A01 T00901112  RH  023%=      5-min Rain = 0
KGHS 112055Z 01023G29KT 09/M11 A3013 RMK A01 T00901111  RH  023%=      5-min Rain = 0
KGHS 112100Z 36023G30KT 09/M11 A3014 RMK A01 T00881110  RH  024%=      5-min Rain = 0
KGHS 112105Z 35022G30KT 09/M11 A3014 RMK A01 T00911110  RH  023%=      5-min Rain = 0
KGHS 112110Z 36021G29KT 09/M11 A3014 RMK A01 T00881109  RH  024%=      5-min Rain = 0
KGHS 112115Z 35025G31KT 09/M11 A3014 RMK A01 T00881110  RH  024%=      5-min Rain = 0
KGHS 112120Z 00024G34KT 09/M11 A3014 RMK A01 T00881111  RH  023%=      5-min Rain = 0
KGHS 112125Z 36025G33KT 09/M11 A3015 RMK A01 T00871113  RH  023%=      5-min Rain = 0
KGHS 112130Z 35019G28KT 09/M11 A3016 RMK A01 T00891112  RH  023%=      5-min Rain = 0
KGHS 112135Z 36020G25KT 09/M11 A3016 RMK A01 T00921112  RH  023%=      5-min Rain = 0
KGHS 112140Z 34020G28KT 09/M11 A3016 RMK A01 T00931111  RH  023%=      5-min Rain = 0
KGHS 112145Z 36020G25KT 09/M11 A3017 RMK A01 T00911112  RH  023%=      5-min Rain = 0
KGHS 112150Z 36017G22KT 09/M11 A3017 RMK A01 T00901111  RH  023%=      5-min Rain = 0
KGHS 112155Z 34022G29KT 09/M11 A3018 RMK A01 T00911112  RH  023%=      5-min Rain = 0
KGHS 112200Z 34019G27KT 09/M11 A3018 RMK A01 T00901111  RH  023%=      5-min Rain = 0
KGHS 112205Z 36018G26KT 09/M11 A3018 RMK A01 T00901112  RH  023%=      5-min Rain = 0
KGHS 112210Z 35017G24KT 09/M11 A3018 RMK A01 T00901110  RH  023%=      5-min Rain = 0
KGHS 112215Z 35016G21KT 09/M11 A3019 RMK A01 T00911110  RH  023%=      5-min Rain = 0
KGHS 112220Z 35015G20KT 09/M11 A3019 RMK A01 T00921111  RH  023%=      5-min Rain = 0
KGHS 112225Z 35019G24KT 09/M11 A3019 RMK A01 T00911112  RH  023%=      5-min Rain = 0
KGHS 112230Z 35020G26KT 09/M11 A3019 RMK A01 T00901114  RH  023%=      5-min Rain = 0
KGHS 112235Z 35019G26KT 09/M11 A3019 RMK A01 T00901113  RH  023%=      5-min Rain = 0
KGHS 112240Z 35020KT 09/M11 A3019 RMK A01 T00881112  RH  023%=      5-min Rain = 0
KGHS 112245Z 35017G22KT 09/M11 A3019 RMK A01 T00881112  RH  023%=      5-min Rain = 0
KGHS 112250Z 35014G21KT 09/M11 A3019 RMK A01 T00881111  RH  024%=      5-min Rain = 0
KGHS 112255Z 35016G21KT 09/M11 A3019 RMK A01 T00871112  RH  024%=      5-min Rain = 0
KGHS 112300Z 35015G20KT 09/M11 A302 RMK A01 T00871112  RH  024%=      5-min Rain = 0
KGHS 112305Z 35016G23KT 09/M11 A302 RMK A01 T00861112  RH  024%=      5-min Rain = 0
KGHS 112310Z 35019KT 09/M11 A302 RMK A01 T00851114  RH  023%=      5-min Rain = 0
KGHS 112315Z 35016G23KT 08/M11 A3021 RMK A01 T00831113  RH  024%=      5-min Rain = 0
KGHS 112320Z 35014G19KT 08/M11 A3021 RMK A01 T00831113  RH  024%=      5-min Rain = 0
KGHS 112325Z 35014KT 08/M11 A3021 RMK A01 T00821113  RH  024%=      5-min Rain = 0
KGHS 112330Z 36012KT 08/M11 A3022 RMK A01 T00801113  RH  024%=      5-min Rain = 0
KGHS 112335Z 00011KT 08/M11 A3022 RMK A01 T00781112  RH  025%=      5-min Rain = 0
KGHS 112340Z 00011KT 08/M11 A3023 RMK A01 T00771111  RH  025%=      5-min Rain = 0
KGHS 112345Z 36009KT 08/M11 A3023 RMK A01 T00751111  RH  026%=      5-min Rain = 0
KGHS 112350Z 36010KT 07/M11 A3023 RMK A01 T00731111  RH  026%=      5-min Rain = 0
KGHS 112355Z 36010KT 07/M11 A3023 RMK A01 T00711111  RH  027%=      5-min Rain = 0
KGHS 120000Z 36010KT 07/M11 A3023 RMK A01 T00681111  RH  027%=      5-min Rain = 0
KGHS 120005Z 35010KT 07/M11 A3023 RMK A01 T00651111  RH  027%=      5-min Rain = 0
KGHS 120010Z 35010KT 06/M11 A3024 RMK A01 T00631112  RH  028%=      5-min Rain = 0
KGHS 120015Z 36011KT 06/M11 A3024 RMK A01 T00611112  RH  028%=      5-min Rain = 0
KGHS 120020Z 35010KT 06/M11 A3024 RMK A01 T00601113  RH  028%=      5-min Rain = 0
KGHS 120025Z 35010KT 06/M11 A3024 RMK A01 T00571113  RH  029%=      5-min Rain = 0
KGHS 120030Z 35010KT 06/M11 A3024 RMK A01 T00551113  RH  029%=      5-min Rain = 0
KGHS 120035Z 35011KT 05/M11 A3024 RMK A01 T00531114  RH  029%=      5-min Rain = 0
KGHS 120040Z 35011KT 05/M11 A3024 RMK A01 T00511114  RH  030%=      5-min Rain = 0
KGHS 120045Z 35012KT 05/M11 A3024 RMK A01 T00491114  RH  030%=      5-min Rain = 0
KGHS 120050Z 35012KT 05/M11 A3024 RMK A01 T00471114  RH  030%=      5-min Rain = 0
KGHS 120055Z 36012KT 05/M11 A3024 RMK A01 T00461114  RH  031%=      5-min Rain = 0
KGHS 120100Z 35011KT 04/M11 A3025 RMK A01 T00441114  RH  031%=      5-min Rain = 0
KGHS 120105Z 35012KT 04/M12 A3025 RMK A01 T00431115  RH  031%=      5-min Rain = 0
KGHS 120110Z 35012KT 04/M12 A3024 RMK A01 T00431115  RH  031%=      5-min Rain = 0
KGHS 120115Z 36012KT 04/M12 A3024 RMK A01 T00421115  RH  031%=      5-min Rain = 0
KGHS 120120Z 00011KT 04/M12 A3025 RMK A01 T00401115  RH  032%=      5-min Rain = 0
KGHS 120125Z 00011KT 04/M12 A3025 RMK A01 T00381115  RH  032%=      5-min Rain = 0
KGHS 120130Z 00011KT 04/M12 A3025 RMK A01 T00401115  RH  032%=      5-min Rain = 0
KGHS 120135Z 01011KT 04/M12 A3025 RMK A01 T00401115  RH  032%=      5-min Rain = 0
KGHS 120140Z 01012KT 04/M12 A3025 RMK A01 T00371116  RH  032%=      5-min Rain = 0
KGHS 120145Z 01013KT 04/M12 A3025 RMK A01 T00351117  RH  032%=      5-min Rain = 0
KGHS 120150Z 01012KT 03/M12 A3025 RMK A01 T00341117  RH  033%=      5-min Rain = 0
KGHS 120155Z 00012KT 03/M12 A3026 RMK A01 T00321118  RH  033%=      5-min Rain = 0
KGHS 120200Z 35011KT 03/M12 A3026 RMK A01 T00251118  RH  034%=      5-min Rain = 0
KGHS 120205Z 35011KT 02/M12 A3026 RMK A01 T00201118  RH  036%=      5-min Rain = 0
KGHS 120210Z 00013KT 02/M12 A3026 RMK A01 T00191117  RH  036%=      5-min Rain = 0
KGHS 120215Z 00014KT 02/M12 A3026 RMK A01 T00201116  RH  036%=      5-min Rain = 0
KGHS 120220Z 01014KT 02/M12 A3026 RMK A01 T00211115  RH  036%=      5-min Rain = 0
KGHS 120225Z 01013KT 02/M12 A3026 RMK A01 T00231115  RH  036%=      5-min Rain = 0
KGHS 120230Z 01013KT 02/M12 A3027 RMK A01 T00231116  RH  036%=      5-min Rain = 0
KGHS 120235Z 01014KT 02/M12 A3026 RMK A01 T00221115  RH  036%=      5-min Rain = 0
KGHS 120240Z 01014KT 02/M11 A3027 RMK A01 T00231114  RH  036%=      5-min Rain = 0
KGHS 120245Z 01014KT 02/M11 A3026 RMK A01 T00231114  RH  036%=      5-min Rain = 0
KGHS 120250Z 01014KT 02/M11 A3026 RMK A01 T00241113  RH  036%=      5-min Rain = 0
KGHS 120255Z 02012KT 03/M11 A3027 RMK A01 T00251114  RH  036%=      5-min Rain = 0
KGHS 120300Z 02013KT 02/M11 A3026 RMK A01 T00241113  RH  036%=      5-min Rain = 0
KGHS 120305Z 02013KT 03/M11 A3026 RMK A01 T00271112  RH  036%=      5-min Rain = 0
KGHS 120310Z 02013KT 03/M11 A3026 RMK A01 T00271113  RH  036%=      5-min Rain = 0
KGHS 120315Z 02013KT 03/M11 A3026 RMK A01 T00281111  RH  036%=      5-min Rain = 0
KGHS 120320Z 02013KT 03/M11 A3026 RMK A01 T00271112  RH  036%=      5-min Rain = 0
KGHS 120325Z 02013KT 02/M11 A3026 RMK A01 T00241112  RH  036%=      5-min Rain = 0
KGHS 120330Z 02013KT 02/M11 A3026 RMK A01 T00231112  RH  037%=      5-min Rain = 0
KGHS 120335Z 02013KT 02/M11 A3026 RMK A01 T00221111  RH  037%=      5-min Rain = 0
KGHS 120340Z 02013KT 02/M11 A3027 RMK A01 T00231110  RH  037%=      5-min Rain = 0
KGHS 120345Z 02012KT 02/M11 A3027 RMK A01 T00241110  RH  037%=      5-min Rain = 0
KGHS 120350Z 02012KT 02/M11 A3027 RMK A01 T00241109  RH  037%=      5-min Rain = 0
KGHS 120355Z 02012KT 02/M11 A3027 RMK A01 T00241110  RH  037%=      5-min Rain = 0
KGHS 120400Z 02012KT 02/M11 A3027 RMK A01 T00231109  RH  037%=      5-min Rain = 0
KGHS 120405Z 02011KT 03/M11 A3027 RMK A01 T00281108  RH  037%=      5-min Rain = 0
KGHS 120410Z 02011KT 03/M11 A3027 RMK A01 T00321108  RH  035%=      5-min Rain = 0
KGHS 120415Z 02011KT 03/M11 A3028 RMK A01 T00321107  RH  036%=      5-min Rain = 0
KGHS 120420Z 02011KT 03/M11 A3028 RMK A01 T00331107  RH  035%=      5-min Rain = 0
KGHS 120425Z 02010KT 03/M11 A3028 RMK A01 T00321108  RH  036%=      5-min Rain = 0
KGHS 120430Z 02011KT 03/M11 A3028 RMK A01 T00291108  RH  036%=      5-min Rain = 0
KGHS 120435Z 02011KT 03/M11 A3028 RMK A01 T00291107  RH  036%=      5-min Rain = 0
KGHS 120440Z 02010KT 03/M11 A3028 RMK A01 T00301106  RH  036%=      5-min Rain = 0
KGHS 120445Z 02010KT 03/M11 A3029 RMK A01 T00311108  RH  036%=      5-min Rain = 0
KGHS 120450Z 02010KT 02/M11 A3029 RMK A01 T00191111  RH  038%=      5-min Rain = 0
KGHS 120455Z 01009KT 01/M11 A3029 RMK A01 T00141111  RH  040%=      5-min Rain = 0
KGHS 120500Z 02009KT 01/M11 A3029 RMK A01 T00101109  RH  041%=      5-min Rain = 0
KGHS 120505Z 02010KT 02/M11 A3028 RMK A01 T00231106  RH  039%=      5-min Rain = 0
KGHS 120510Z 02009KT 03/M11 A3028 RMK A01 T00281106  RH  037%=      5-min Rain = 0
KGHS 120515Z 02009KT 03/M11 A3028 RMK A01 T00291106  RH  037%=      5-min Rain = 0
KGHS 120520Z 02010KT 03/M11 A3028 RMK A01 T00281106  RH  037%=      5-min Rain = 0
KGHS 120525Z 02010KT 03/M11 A3028 RMK A01 T00251108  RH  037%=      5-min Rain = 0
KGHS 120530Z 02010KT 02/M11 A3028 RMK A01 T00231106  RH  038%=      5-min Rain = 0
KGHS 120535Z 02010KT 03/M11 A3028 RMK A01 T00251106  RH  038%=      5-min Rain = 0
KGHS 120540Z 02010KT 03/M11 A3028 RMK A01 T00251106  RH  038%=      5-min Rain = 0
KGHS 120545Z 03009KT 02/M11 A3028 RMK A01 T00241106  RH  038%=      5-min Rain = 0
KGHS 120550Z 03010KT 02/M11 A3028 RMK A01 T00231106  RH  038%=      5-min Rain = 0
KGHS 120555Z 03009KT 02/M11 A3028 RMK A01 T00221106  RH  039%=      5-min Rain = 0

Page generated in 0.0091 seconds.